createdAt,value
2023-08-08T09:13:15.104Z,20.40
2023-08-08T09:14:15.001Z,20.50
2023-08-08T09:15:14.942Z,20.50
2023-08-08T09:16:14.895Z,20.69
2023-08-08T09:17:14.846Z,20.66
2023-08-08T09:18:15.266Z,20.66
2023-08-08T09:19:14.623Z,20.66
2023-08-08T09:20:14.651Z,20.76
2023-08-08T09:21:14.543Z,20.89
2023-08-08T09:22:14.424Z,21.02
2023-08-08T09:23:14.321Z,20.98
2023-08-08T09:24:14.242Z,21.21
2023-08-08T09:25:14.167Z,21.01
2023-08-08T09:26:14.109Z,21.08
2023-08-08T09:27:14.013Z,21.05
2023-08-08T09:28:13.943Z,21.16
2023-08-08T09:29:13.955Z,21.17
2023-08-08T09:30:13.784Z,21.14
2023-08-08T09:31:13.740Z,21.14
2023-08-08T09:32:13.640Z,21.11
2023-08-08T09:33:13.564Z,21.14
2023-08-08T09:34:13.492Z,21.08
2023-08-08T09:35:13.443Z,21.08
2023-08-08T09:36:13.333Z,20.99
2023-08-08T09:37:13.259Z,20.98
2023-08-08T09:38:13.187Z,20.94
2023-08-08T09:39:13.099Z,20.87
2023-08-08T09:40:13.189Z,20.96
2023-08-08T09:41:12.954Z,20.98
2023-08-08T09:42:12.874Z,21.14
2023-08-08T09:43:12.809Z,20.96
2023-08-08T09:44:12.727Z,21.20
2023-08-08T09:45:12.675Z,21.23
2023-08-08T09:46:12.588Z,21.26
2023-08-08T09:47:12.498Z,21.26
2023-08-08T09:48:12.482Z,21.20
2023-08-08T09:49:12.361Z,21.09
2023-08-08T09:50:12.274Z,21.02
2023-08-08T09:51:12.203Z,20.89
2023-08-08T09:52:12.122Z,20.74
2023-08-08T09:53:12.042Z,20.80
2023-08-08T09:54:11.977Z,20.66
2023-08-08T09:55:11.971Z,20.74
2023-08-08T09:56:11.945Z,20.79
2023-08-08T09:57:11.818Z,20.71
2023-08-08T09:58:11.676Z,20.74
2023-08-08T09:59:11.589Z,20.71
2023-08-08T10:00:11.546Z,20.83
2023-08-08T10:01:11.470Z,20.86
2023-08-08T10:02:11.368Z,21.08
2023-08-08T10:03:11.415Z,21.16
2023-08-08T10:04:11.218Z,21.29
2023-08-08T10:05:11.147Z,21.38
2023-08-08T10:06:11.071Z,21.27
2023-08-08T10:07:10.995Z,21.33
2023-08-08T10:08:10.918Z,21.39
2023-08-08T10:09:10.840Z,21.42
2023-08-08T10:10:10.771Z,21.42
2023-08-08T10:11:10.690Z,21.56
2023-08-08T10:12:10.616Z,21.59
2023-08-08T10:13:10.540Z,21.69
2023-08-08T10:14:10.471Z,21.85
2023-08-08T10:15:10.393Z,21.97
2023-08-08T10:16:10.392Z,21.82
2023-08-08T10:17:10.265Z,21.81
2023-08-08T10:18:10.161Z,21.76
2023-08-08T10:19:10.093Z,21.69
2023-08-08T10:20:10.018Z,21.69
2023-08-08T10:21:09.940Z,21.78
2023-08-08T10:22:09.950Z,21.89
2023-08-08T10:23:09.791Z,21.76
2023-08-08T10:24:09.719Z,21.64
2023-08-08T10:25:09.639Z,21.66
2023-08-08T10:26:09.562Z,21.69
2023-08-08T10:27:09.495Z,21.70
2023-08-08T10:28:20.184Z,21.70
2023-08-08T10:29:09.342Z,21.64
2023-08-08T10:30:09.270Z,21.69
2023-08-08T10:31:09.254Z,21.70
2023-08-08T10:32:09.131Z,21.63
2023-08-08T10:33:09.149Z,21.69
2023-08-08T10:34:09.086Z,21.69
2023-08-08T10:35:08.985Z,21.69
2023-08-08T10:36:08.830Z,21.74
2023-08-08T10:37:08.740Z,21.70
2023-08-08T10:38:08.661Z,21.69
2023-08-08T10:39:08.582Z,21.72
2023-08-08T10:40:08.593Z,21.70
2023-08-08T10:41:08.437Z,21.70
2023-08-08T10:42:08.363Z,21.75
2023-08-08T10:43:08.287Z,21.72
2023-08-08T10:44:08.234Z,21.82
2023-08-08T10:45:08.137Z,21.82
2023-08-08T10:46:13.559Z,22.02
2023-08-08T10:47:07.993Z,21.95
2023-08-08T10:48:07.933Z,21.94
2023-08-08T10:49:07.846Z,21.86
2023-08-08T10:50:07.790Z,21.78
2023-08-08T10:51:07.734Z,21.69
2023-08-08T10:52:07.621Z,21.60
2023-08-08T10:53:07.892Z,21.51
2023-08-08T10:54:07.466Z,21.63
2023-08-08T10:55:07.392Z,21.54
2023-08-08T10:56:07.380Z,21.42
2023-08-08T10:57:07.244Z,21.36
2023-08-08T10:58:07.175Z,21.48
2023-08-08T10:59:07.098Z,21.45
2023-08-08T11:00:07.012Z,21.39
2023-08-08T11:01:06.977Z,21.42
2023-08-08T11:02:06.892Z,21.48
2023-08-08T11:03:06.788Z,21.51
2023-08-08T11:04:06.712Z,21.74
2023-08-08T11:05:06.656Z,21.86
2023-08-08T11:06:06.593Z,21.86
2023-08-08T11:07:06.500Z,21.74
2023-08-08T11:08:06.424Z,21.64
2023-08-08T11:09:06.340Z,21.57
2023-08-08T11:10:06.264Z,21.54
2023-08-08T11:11:06.193Z,21.57
2023-08-08T11:12:06.123Z,21.69
2023-08-08T11:13:06.034Z,21.64
2023-08-08T11:14:05.964Z,21.81
2023-08-08T11:15:06.014Z,21.84
2023-08-08T11:16:05.849Z,21.75
2023-08-08T11:17:05.741Z,21.86
2023-08-08T11:18:05.801Z,21.92
2023-08-08T11:19:05.592Z,21.95
2023-08-08T11:20:05.533Z,21.84
2023-08-08T11:21:17.661Z,21.91
2023-08-08T11:22:05.368Z,21.84
2023-08-08T11:23:05.319Z,21.82
2023-08-08T11:24:05.221Z,21.97
2023-08-08T11:25:05.148Z,21.91
2023-08-08T11:27:04.997Z,22.04
2023-08-08T11:28:04.912Z,22.08
2023-08-08T11:29:04.845Z,21.94
2023-08-08T11:30:05.356Z,21.97
2023-08-08T11:31:04.750Z,21.98
2023-08-08T11:32:04.804Z,22.00
2023-08-08T11:34:04.479Z,22.02
2023-08-08T11:35:04.392Z,22.02
2023-08-08T11:36:04.326Z,22.05
2023-08-08T11:37:04.240Z,22.15
2023-08-08T11:38:04.184Z,22.19
2023-08-08T11:39:04.097Z,22.23
2023-08-08T11:40:04.025Z,22.28
2023-08-08T11:41:03.942Z,22.31
2023-08-08T11:42:04.256Z,22.34
2023-08-08T11:43:03.801Z,22.37
2023-08-08T11:44:03.716Z,22.39
2023-08-08T11:45:03.642Z,22.49
2023-08-08T11:46:03.563Z,22.47
2023-08-08T11:47:04.983Z,22.39
2023-08-08T11:48:03.475Z,22.47
2023-08-08T11:49:03.345Z,22.53
2023-08-08T11:50:03.380Z,22.50
2023-08-08T11:51:03.197Z,22.60
2023-08-08T11:52:03.303Z,22.67
2023-08-08T11:53:04.187Z,22.74
2023-08-08T11:54:02.975Z,22.74
2023-08-08T11:55:02.901Z,22.78
2023-08-08T11:56:02.817Z,22.77
2023-08-08T11:57:02.758Z,22.81
2023-08-08T11:58:02.747Z,22.69
2023-08-08T11:59:02.607Z,22.71
2023-08-08T12:00:02.519Z,22.71
2023-08-08T12:01:02.521Z,22.63
2023-08-08T12:02:02.576Z,22.56
2023-08-08T12:03:02.475Z,22.60
2023-08-08T12:04:02.257Z,22.54
2023-08-08T12:05:02.157Z,22.54
2023-08-08T12:06:02.073Z,22.44
2023-08-08T12:07:02.092Z,22.35
2023-08-08T12:08:01.932Z,22.42
2023-08-08T12:09:01.862Z,22.54
2023-08-08T12:10:01.807Z,22.50
2023-08-08T12:11:01.719Z,22.52
2023-08-08T12:12:01.834Z,22.59
2023-08-08T12:13:01.613Z,22.60
2023-08-08T12:14:01.493Z,22.47
2023-08-08T12:15:08.201Z,22.56
2023-08-08T12:16:01.554Z,22.54
2023-08-08T12:17:01.398Z,22.62
2023-08-08T12:18:01.345Z,22.67
2023-08-08T12:19:01.115Z,22.77
2023-08-08T12:20:01.039Z,22.74
2023-08-08T12:21:00.954Z,22.83
2023-08-08T12:22:00.889Z,22.86
2023-08-08T12:23:00.923Z,22.89
2023-08-08T12:24:00.745Z,22.92
2023-08-08T12:25:00.670Z,22.90
2023-08-08T12:26:00.585Z,23.00
2023-08-08T12:27:00.674Z,23.05
2023-08-08T12:28:00.470Z,22.94
2023-08-08T12:29:00.375Z,23.08
2023-08-08T12:30:00.436Z,23.20
2023-08-08T12:31:00.243Z,23.09
2023-08-08T12:32:00.214Z,23.11
2023-08-08T12:33:00.095Z,23.22
2023-08-08T12:34:00.001Z,23.34
2023-08-08T12:34:59.952Z,23.29
2023-08-08T12:36:01.555Z,23.17
2023-08-08T12:37:00.316Z,23.22
2023-08-08T12:37:59.697Z,23.24
2023-08-08T12:38:59.655Z,23.09
2023-08-08T12:39:59.556Z,23.20
2023-08-08T12:40:59.555Z,23.17
2023-08-08T12:41:59.618Z,23.17
2023-08-08T12:42:59.406Z,23.23
2023-08-08T12:43:59.894Z,23.18
2023-08-08T12:44:59.175Z,23.20
2023-08-08T12:45:59.185Z,23.20
2023-08-08T12:46:59.248Z,23.27
2023-08-08T12:47:59.009Z,23.33
2023-08-08T12:48:58.883Z,23.29
2023-08-08T12:49:58.848Z,23.37
2023-08-08T12:50:58.787Z,23.29
2023-08-08T12:51:58.659Z,23.24
2023-08-08T12:52:58.705Z,23.45
2023-08-08T12:53:58.519Z,23.35
2023-08-08T12:54:59.972Z,23.40
2023-08-08T12:55:58.377Z,23.49
2023-08-08T12:56:58.496Z,23.53
2023-08-08T12:57:58.214Z,23.55
2023-08-08T12:58:58.146Z,23.58
2023-08-08T12:59:58.070Z,23.60
2023-08-08T13:00:58.061Z,23.61
2023-08-08T13:01:58.398Z,23.70
2023-08-08T13:02:57.895Z,23.80
2023-08-08T13:04:18.225Z,23.70
2023-08-08T13:04:57.732Z,23.75
2023-08-08T13:05:57.631Z,23.75
2023-08-08T13:06:59.058Z,23.90
2023-08-08T13:07:57.484Z,23.72
2023-08-08T13:08:57.430Z,23.70
2023-08-08T13:09:57.335Z,23.71
2023-08-08T13:10:57.262Z,23.64
2023-08-08T13:11:57.182Z,23.64
2023-08-08T13:12:57.119Z,23.61
2023-08-08T13:13:57.286Z,23.63
2023-08-08T13:14:56.987Z,23.60
2023-08-08T13:15:57.024Z,23.61
2023-08-08T13:16:56.828Z,23.71
2023-08-08T13:17:56.755Z,23.53
2023-08-08T13:18:56.673Z,23.48
2023-08-08T13:19:56.598Z,23.42
2023-08-08T13:20:56.529Z,23.49
2023-08-08T13:21:56.447Z,23.50
2023-08-08T13:22:56.387Z,23.56
2023-08-08T13:23:56.311Z,23.53
2023-08-08T13:24:56.230Z,23.53
2023-08-08T13:25:56.163Z,23.38
2023-08-08T13:26:56.091Z,23.37
2023-08-08T13:27:56.010Z,23.38
2023-08-08T13:28:56.055Z,23.42
2023-08-08T13:29:55.874Z,23.40
2023-08-08T13:30:55.819Z,23.35
2023-08-08T13:31:55.707Z,23.27
2023-08-08T13:32:55.692Z,23.15
2023-08-08T13:33:55.573Z,23.15
2023-08-08T13:34:55.493Z,23.15
2023-08-08T13:35:55.421Z,23.14
2023-08-08T13:36:55.348Z,23.14
2023-08-08T13:37:55.273Z,23.18
2023-08-08T13:38:55.605Z,23.15
2023-08-08T13:39:55.133Z,23.23
2023-08-08T13:40:55.067Z,23.18
2023-08-08T13:41:54.979Z,23.07
2023-08-08T13:42:54.930Z,23.17
2023-08-08T13:43:54.830Z,23.07
2023-08-08T13:44:55.497Z,23.05
2023-08-08T13:45:54.865Z,22.93
2023-08-08T13:46:56.304Z,22.86
2023-08-08T13:47:54.577Z,22.90
2023-08-08T13:48:54.473Z,22.93
2023-08-08T13:49:54.404Z,22.97
2023-08-08T13:50:54.324Z,23.04
2023-08-08T13:51:54.244Z,23.08
2023-08-08T13:52:54.177Z,23.07
2023-08-08T13:53:54.094Z,23.04
2023-08-08T13:54:54.022Z,22.97
2023-08-08T13:55:53.958Z,23.18
2023-08-08T13:56:53.877Z,23.23
2023-08-08T13:57:53.802Z,23.23
2023-08-08T13:58:53.727Z,23.20
2023-08-08T13:59:53.653Z,23.22
2023-08-08T14:00:53.593Z,23.23
2023-08-08T14:01:53.560Z,23.17
2023-08-08T14:02:53.592Z,23.18
2023-08-08T14:03:53.526Z,23.12
2023-08-08T14:04:53.285Z,23.20
2023-08-08T14:05:53.213Z,23.12
2023-08-08T14:06:53.148Z,23.11
2023-08-08T14:07:53.061Z,23.17
2023-08-08T14:08:52.989Z,23.27
2023-08-08T14:09:52.914Z,23.23
2023-08-08T14:10:52.849Z,23.22
2023-08-08T14:11:52.767Z,23.23
2023-08-08T14:12:52.698Z,23.20
2023-08-08T14:13:52.618Z,23.29
2023-08-08T14:14:52.553Z,23.23
2023-08-08T14:15:52.504Z,23.23
2023-08-08T14:16:53.900Z,23.17
2023-08-08T14:17:52.381Z,23.18
2023-08-08T14:18:52.266Z,23.22
2023-08-08T14:19:52.176Z,23.23
2023-08-08T14:20:52.102Z,23.27
2023-08-08T14:21:52.036Z,23.45
2023-08-08T14:22:51.964Z,23.46
2023-08-08T14:23:51.886Z,23.52
2023-08-08T14:24:51.809Z,23.55
2023-08-08T14:25:51.732Z,23.55
2023-08-08T14:26:51.662Z,23.64
2023-08-08T14:27:51.580Z,23.80
2023-08-08T14:28:51.512Z,23.75
2023-08-08T14:29:51.445Z,23.78
2023-08-08T14:30:51.369Z,23.78
2023-08-08T14:31:59.770Z,23.74
2023-08-08T14:32:51.261Z,23.72
2023-08-08T14:33:51.154Z,23.80
2023-08-08T14:34:51.069Z,23.68
2023-08-08T14:35:51.013Z,23.55
2023-08-08T14:36:50.932Z,23.60
2023-08-08T14:37:50.858Z,23.50
2023-08-08T14:38:50.781Z,23.43
2023-08-08T14:39:51.956Z,23.43
2023-08-08T14:40:50.631Z,23.46
2023-08-08T14:41:50.553Z,23.48
2023-08-08T14:42:52.445Z,23.49
2023-08-08T14:43:50.414Z,23.45
2023-08-08T14:44:50.347Z,23.50
2023-08-08T14:45:50.288Z,23.53
2023-08-08T14:46:50.187Z,23.56
2023-08-08T14:47:50.144Z,23.58
2023-08-08T14:48:50.143Z,23.67
2023-08-08T14:49:50.182Z,23.75
2023-08-08T14:50:49.895Z,23.61
2023-08-08T14:51:49.822Z,23.43
2023-08-08T14:52:49.943Z,23.40
2023-08-08T14:53:49.677Z,23.45
2023-08-08T14:54:49.616Z,23.43
2023-08-08T14:55:49.533Z,23.45
2023-08-08T14:56:49.473Z,23.48
2023-08-08T14:57:49.386Z,23.46
2023-08-08T14:58:49.299Z,23.48
2023-08-08T14:59:49.224Z,23.53
2023-08-08T15:00:49.181Z,23.50
2023-08-08T15:01:49.287Z,23.58
2023-08-08T15:02:49.038Z,23.63
2023-08-08T15:03:49.015Z,23.63
2023-08-08T15:04:50.624Z,23.53
2023-08-08T15:05:48.795Z,23.55
2023-08-08T15:06:48.721Z,23.43
2023-08-08T15:07:48.655Z,23.40
2023-08-08T15:08:48.574Z,23.45
2023-08-08T15:09:48.533Z,23.17
2023-08-08T15:10:48.420Z,23.15
2023-08-08T15:11:48.352Z,23.11
2023-08-08T15:12:48.282Z,23.08
2023-08-08T15:13:48.208Z,23.00
2023-08-08T15:14:48.145Z,23.05
2023-08-08T15:15:48.103Z,23.17
2023-08-08T15:16:47.981Z,23.20
2023-08-08T15:17:47.920Z,23.11
2023-08-08T15:18:47.843Z,23.14
2023-08-08T15:19:47.759Z,23.02
2023-08-08T15:20:47.688Z,23.07
2023-08-08T15:21:47.615Z,23.12
2023-08-08T15:22:47.549Z,23.09
2023-08-08T15:23:47.466Z,23.07
2023-08-08T15:24:47.390Z,23.09
2023-08-08T15:25:47.326Z,22.97
2023-08-08T15:26:47.236Z,23.02
2023-08-08T15:27:47.168Z,22.94
2023-08-08T15:28:47.343Z,22.93
2023-08-08T15:29:47.016Z,22.89
2023-08-08T15:30:46.949Z,22.96
2023-08-08T15:31:46.902Z,22.99
2023-08-08T15:32:46.840Z,23.00
2023-08-08T15:33:46.755Z,22.99
2023-08-08T15:34:46.667Z,22.93
2023-08-08T15:35:46.583Z,23.05
2023-08-08T15:36:46.606Z,22.96
2023-08-08T15:37:46.429Z,22.84
2023-08-08T15:38:46.361Z,22.87
2023-08-08T15:39:46.281Z,22.87
2023-08-08T15:40:46.223Z,22.96
2023-08-08T15:41:46.128Z,22.90
2023-08-08T15:42:46.063Z,22.93
2023-08-08T15:43:45.992Z,22.93
2023-08-08T15:44:45.911Z,22.84
2023-08-08T15:45:45.835Z,22.94
2023-08-08T15:46:45.784Z,22.86
2023-08-08T15:47:45.713Z,22.86
2023-08-08T15:48:45.616Z,22.89
2023-08-08T15:49:45.541Z,22.89
2023-08-08T15:50:45.467Z,22.86
2023-08-08T15:51:46.701Z,22.83
2023-08-08T15:52:45.344Z,22.89
2023-08-08T15:53:45.240Z,22.90
2023-08-08T15:54:45.180Z,22.86
2023-08-08T15:55:45.101Z,22.84
2023-08-08T15:56:45.029Z,22.78
2023-08-08T15:57:44.954Z,22.81
2023-08-08T15:58:44.896Z,22.81
2023-08-08T15:59:44.802Z,22.81
2023-08-08T16:00:44.759Z,22.83
2023-08-08T16:01:44.656Z,22.89
2023-08-08T16:02:44.647Z,22.84
2023-08-08T16:03:44.503Z,22.78
2023-08-08T16:04:44.435Z,22.74
2023-08-08T16:05:44.358Z,22.77
2023-08-08T16:06:44.297Z,22.71
2023-08-08T16:07:44.216Z,22.79
2023-08-08T16:08:44.144Z,22.81
2023-08-08T16:09:44.090Z,22.72
2023-08-08T16:10:43.999Z,22.77
2023-08-08T16:11:43.919Z,22.74
2023-08-08T16:12:43.840Z,22.72
2023-08-08T16:13:43.770Z,22.79
2023-08-08T16:14:43.708Z,22.71
2023-08-08T16:15:43.615Z,22.65
2023-08-08T16:16:43.561Z,22.68
2023-08-08T16:17:43.526Z,22.46
2023-08-08T16:18:43.394Z,22.44
2023-08-08T16:19:43.323Z,22.37
2023-08-08T16:20:43.259Z,22.39
2023-08-08T16:21:43.176Z,22.31
2023-08-08T16:22:43.095Z,22.30
2023-08-08T16:23:43.028Z,22.24
2023-08-08T16:24:42.955Z,22.26
2023-08-08T16:25:42.878Z,22.23
2023-08-08T16:26:42.801Z,22.23
2023-08-08T16:27:42.726Z,22.24
2023-08-08T16:28:42.649Z,22.24
2023-08-08T16:29:42.591Z,22.19
2023-08-08T16:30:42.601Z,22.24
2023-08-08T16:31:42.434Z,22.22
2023-08-08T16:32:42.374Z,22.20
2023-08-08T16:33:42.285Z,22.19
2023-08-08T16:34:42.212Z,22.16
2023-08-08T16:35:42.130Z,22.20
2023-08-08T16:36:42.066Z,22.19
2023-08-08T16:37:41.986Z,22.20
2023-08-08T16:38:41.916Z,22.16
2023-08-08T16:39:41.833Z,22.07
2023-08-08T16:40:41.867Z,22.16
2023-08-08T16:41:41.691Z,22.17
2023-08-08T16:42:41.614Z,22.10
2023-08-08T16:43:41.541Z,22.15
2023-08-08T16:44:41.466Z,22.10
2023-08-08T16:45:41.417Z,22.15
2023-08-08T16:46:41.320Z,22.08
2023-08-08T16:47:41.237Z,22.08
2023-08-08T16:48:41.173Z,22.17
2023-08-08T16:49:41.093Z,22.15
2023-08-08T16:50:41.013Z,22.12
2023-08-08T16:51:40.962Z,22.07
2023-08-08T16:52:40.871Z,22.13
2023-08-08T16:53:40.795Z,22.08
2023-08-08T16:54:40.719Z,22.08
2023-08-08T16:55:40.651Z,22.13
2023-08-08T16:56:40.582Z,22.02
2023-08-08T16:57:40.517Z,22.04
2023-08-08T16:58:40.424Z,22.01
2023-08-08T16:59:40.363Z,21.92
2023-08-08T17:00:40.341Z,21.95
2023-08-08T17:01:40.195Z,21.95
2023-08-08T17:02:40.154Z,22.00
2023-08-08T17:03:40.065Z,21.94
2023-08-08T17:04:39.975Z,21.91
2023-08-08T17:05:39.895Z,21.92
2023-08-08T17:06:39.830Z,21.92
2023-08-08T17:07:39.753Z,21.86
2023-08-08T17:08:39.674Z,21.97
2023-08-08T17:09:39.614Z,21.91
2023-08-08T17:10:39.532Z,21.95
2023-08-08T17:11:39.457Z,21.89
2023-08-08T17:12:39.375Z,21.85
2023-08-08T17:13:39.310Z,21.85
2023-08-08T17:14:39.237Z,21.86
2023-08-08T17:15:39.171Z,21.85
2023-08-08T17:16:39.148Z,21.79
2023-08-08T17:17:39.028Z,21.72
2023-08-08T17:18:38.943Z,21.67
2023-08-08T17:19:38.870Z,21.69
2023-08-08T17:20:38.786Z,21.57
2023-08-08T17:21:39.156Z,21.66
2023-08-08T17:22:38.764Z,21.60
2023-08-08T17:23:38.564Z,21.64
2023-08-08T17:24:40.665Z,21.64
2023-08-08T17:25:38.444Z,21.63
2023-08-08T17:26:38.338Z,21.57
2023-08-08T17:27:38.252Z,21.54
2023-08-08T17:28:38.296Z,21.59
2023-08-08T17:29:38.126Z,21.53
2023-08-08T17:30:38.066Z,21.42
2023-08-08T17:31:37.975Z,21.54
2023-08-08T17:32:37.918Z,21.53
2023-08-08T17:33:37.815Z,21.53
2023-08-08T17:34:37.742Z,21.54
2023-08-08T17:35:37.669Z,21.49
2023-08-08T17:36:37.605Z,21.57
2023-08-08T17:37:37.527Z,21.45
2023-08-08T17:38:37.438Z,21.54
2023-08-08T17:39:37.369Z,21.46
2023-08-08T17:40:37.289Z,21.39
2023-08-08T17:41:37.224Z,21.36
2023-08-08T17:42:37.139Z,21.39
2023-08-08T17:43:37.081Z,21.29
2023-08-08T17:44:37.085Z,21.36
2023-08-08T17:45:36.918Z,21.12
2023-08-08T17:46:36.876Z,21.11
2023-08-08T17:47:36.823Z,21.09
2023-08-08T17:48:36.693Z,21.11
2023-08-08T17:49:36.618Z,21.06
2023-08-08T17:50:36.542Z,21.06
2023-08-08T17:51:36.475Z,21.02
2023-08-08T17:52:36.397Z,21.09
2023-08-08T17:53:36.325Z,21.05
2023-08-08T17:54:36.263Z,21.04
2023-08-08T17:55:36.160Z,21.05
2023-08-08T17:56:36.086Z,21.02
2023-08-08T17:57:36.018Z,20.99
2023-08-08T17:58:35.946Z,21.02
2023-08-08T17:59:35.861Z,21.02
2023-08-08T18:00:35.896Z,20.96
2023-08-08T18:01:35.796Z,20.94
2023-08-08T18:02:35.775Z,20.93
2023-08-08T18:03:35.610Z,20.91
2023-08-08T18:04:35.495Z,20.90
2023-08-08T18:05:35.415Z,20.83
2023-08-08T18:06:35.333Z,20.69
2023-08-08T18:07:35.258Z,20.68
2023-08-08T18:08:35.192Z,20.68
2023-08-08T18:09:35.106Z,20.64
2023-08-08T18:10:35.039Z,20.64
2023-08-08T18:11:34.960Z,20.56
2023-08-08T18:12:34.886Z,20.61
2023-08-08T18:13:34.805Z,20.54
2023-08-08T18:14:34.737Z,20.54
2023-08-08T18:15:34.659Z,20.53
2023-08-08T18:16:34.725Z,20.51
2023-08-08T18:17:34.515Z,20.57
2023-08-08T18:18:34.448Z,20.53
2023-08-08T18:19:34.366Z,20.53
2023-08-08T18:20:34.308Z,20.51
2023-08-08T18:21:34.202Z,20.51
2023-08-08T18:22:34.130Z,20.47
2023-08-08T18:23:34.055Z,20.59
2023-08-08T18:24:33.988Z,20.46
2023-08-08T18:25:33.900Z,20.54
2023-08-08T18:26:33.832Z,20.50
2023-08-08T18:27:33.755Z,20.50
2023-08-08T18:28:33.681Z,20.33
2023-08-08T18:29:33.600Z,20.35
2023-08-08T18:30:33.522Z,20.28
2023-08-08T18:31:33.487Z,20.28
2023-08-08T18:32:33.426Z,20.35
2023-08-08T18:33:33.302Z,20.28
2023-08-08T18:34:33.229Z,20.24
2023-08-08T18:35:33.153Z,20.12
2023-08-08T18:36:33.071Z,20.15
2023-08-08T18:37:32.998Z,20.08
2023-08-08T18:38:32.927Z,20.15
2023-08-08T18:39:32.850Z,20.09
2023-08-08T18:40:32.774Z,20.06
2023-08-08T18:41:32.706Z,20.10
2023-08-08T18:42:33.311Z,20.09
2023-08-08T18:43:32.545Z,19.94
2023-08-08T18:44:32.471Z,20.06
2023-08-08T18:45:32.405Z,19.98
2023-08-08T18:46:32.316Z,20.00
2023-08-08T18:47:32.308Z,20.01
2023-08-08T18:48:32.183Z,20.05
2023-08-08T18:49:32.095Z,19.97
2023-08-08T18:50:32.032Z,19.93
2023-08-08T18:51:31.943Z,19.86
2023-08-08T18:52:31.870Z,19.94
2023-08-08T18:53:31.796Z,19.83
2023-08-08T18:54:31.785Z,19.79
2023-08-08T18:55:32.327Z,19.78
2023-08-08T18:56:31.566Z,19.75
2023-08-08T18:57:31.491Z,19.76
2023-08-08T18:58:31.412Z,19.75
2023-08-08T18:59:31.338Z,19.72
2023-08-08T19:00:31.255Z,19.82
2023-08-08T19:01:31.283Z,19.69
2023-08-08T19:02:31.206Z,19.72
2023-08-08T19:03:31.104Z,19.75
2023-08-08T19:04:30.964Z,19.71
2023-08-08T19:05:30.900Z,19.76
2023-08-08T19:06:30.811Z,19.69
2023-08-08T19:07:30.738Z,19.73
2023-08-08T19:08:31.326Z,19.58
2023-08-08T19:09:30.579Z,19.65
2023-08-08T19:10:30.496Z,19.57
2023-08-08T19:11:30.427Z,19.53
2023-08-08T19:12:30.356Z,19.60
2023-08-08T19:13:30.278Z,19.69
2023-08-08T19:14:30.195Z,19.55
2023-08-08T19:15:30.119Z,19.64
2023-08-08T19:16:30.074Z,19.57
2023-08-08T19:17:38.634Z,19.57
2023-08-08T19:18:29.964Z,19.68
2023-08-08T19:19:29.814Z,19.60
2023-08-08T19:20:29.787Z,19.64
2023-08-08T19:21:29.667Z,19.63
2023-08-08T19:22:29.584Z,19.58
2023-08-08T19:23:29.517Z,19.64
2023-08-08T19:24:29.435Z,19.69
2023-08-08T19:25:29.364Z,19.63
2023-08-08T19:26:29.292Z,19.65
2023-08-08T19:27:29.209Z,19.60
2023-08-08T19:28:29.141Z,19.54
2023-08-08T19:29:29.066Z,19.61
2023-08-08T19:30:28.980Z,19.55
2023-08-08T19:31:28.912Z,19.64
2023-08-08T19:32:28.836Z,19.58
2023-08-08T19:33:28.765Z,19.53
2023-08-08T19:34:28.702Z,19.57
2023-08-08T19:35:28.612Z,19.55
2023-08-08T19:36:28.530Z,19.53
2023-08-08T19:37:28.449Z,19.51
2023-08-08T19:38:28.388Z,19.53
2023-08-08T19:39:28.294Z,19.48
2023-08-08T19:40:28.235Z,19.53
2023-08-08T19:41:28.156Z,19.55
2023-08-08T19:42:28.071Z,19.48
2023-08-08T19:43:28.005Z,19.46
2023-08-08T19:44:27.909Z,19.42
2023-08-08T19:45:27.848Z,19.45
2023-08-08T19:46:27.825Z,19.33
2023-08-08T19:47:27.735Z,19.28
2023-08-08T19:48:27.618Z,19.28
2023-08-08T19:49:27.540Z,19.45
2023-08-08T19:50:27.464Z,19.40
2023-08-08T19:51:27.383Z,19.31
2023-08-08T19:52:27.414Z,19.38
2023-08-08T19:53:27.236Z,19.33
2023-08-08T19:54:27.154Z,19.33
2023-08-08T19:55:27.083Z,19.43
2023-08-08T19:56:27.006Z,19.35
2023-08-08T19:57:26.938Z,19.25
2023-08-08T19:58:26.864Z,19.31
2023-08-08T19:59:26.778Z,19.24
2023-08-08T20:00:26.701Z,19.33
2023-08-08T20:01:26.677Z,19.27
2023-08-08T20:02:26.591Z,19.27
2023-08-08T20:03:26.554Z,19.23
2023-08-08T20:04:26.387Z,19.31
2023-08-08T20:05:26.340Z,19.33
2023-08-08T20:06:26.249Z,19.24
2023-08-08T20:07:26.171Z,19.17
2023-08-08T20:08:26.189Z,19.24
2023-08-08T20:09:26.017Z,19.18
2023-08-08T20:10:25.948Z,19.15
2023-08-08T20:11:25.862Z,19.14
2023-08-08T20:12:25.784Z,19.06
2023-08-08T20:13:25.720Z,19.05
2023-08-08T20:14:25.627Z,18.98
2023-08-08T20:15:25.558Z,19.02
2023-08-08T20:16:25.574Z,19.08
2023-08-08T20:17:25.453Z,19.09
2023-08-08T20:18:25.328Z,19.01
2023-08-08T20:19:25.261Z,19.05
2023-08-08T20:20:25.176Z,19.06
2023-08-08T20:21:25.093Z,18.99
2023-08-08T20:22:25.019Z,19.02
2023-08-08T20:23:24.945Z,19.06
2023-08-08T20:24:24.867Z,18.99
2023-08-08T20:25:24.792Z,18.97
2023-08-08T20:26:24.724Z,18.98
2023-08-08T20:27:24.630Z,19.01
2023-08-08T20:28:24.575Z,18.95
2023-08-08T20:29:24.488Z,18.94
2023-08-08T20:30:24.425Z,18.97
2023-08-08T20:31:24.373Z,18.97
2023-08-08T20:32:24.262Z,18.98
2023-08-08T20:33:24.184Z,18.95
2023-08-08T20:34:24.105Z,18.98
2023-08-08T20:35:24.042Z,19.02
2023-08-08T20:36:23.953Z,19.06
2023-08-08T20:37:23.878Z,19.14
2023-08-08T20:38:23.805Z,19.01
2023-08-08T20:39:23.732Z,19.05
2023-08-08T20:40:23.653Z,19.08
2023-08-08T20:41:23.572Z,19.11
2023-08-08T20:42:23.503Z,19.05
2023-08-08T20:43:23.412Z,19.05
2023-08-08T20:44:23.351Z,18.95
2023-08-08T20:45:23.277Z,19.02
2023-08-08T20:46:23.188Z,19.02
2023-08-08T20:47:23.113Z,19.01
2023-08-08T20:48:23.405Z,19.05
2023-08-08T20:49:22.953Z,18.98
2023-08-08T20:50:22.912Z,19.06
2023-08-08T20:51:22.818Z,19.02
2023-08-08T20:52:22.739Z,19.01
2023-08-08T20:53:22.654Z,19.01
2023-08-08T20:54:22.575Z,18.99
2023-08-08T20:55:22.533Z,18.99
2023-08-08T20:56:22.520Z,19.01
2023-08-08T20:57:22.350Z,18.97
2023-08-08T20:58:22.275Z,18.94
2023-08-08T20:59:22.189Z,18.97
2023-08-08T21:00:22.124Z,18.95
2023-08-08T21:01:22.078Z,18.94
2023-08-08T21:02:22.000Z,18.97
2023-08-08T21:03:21.952Z,18.95
2023-08-08T21:04:21.814Z,18.92
2023-08-08T21:05:21.747Z,18.90
2023-08-08T21:06:21.655Z,18.79
2023-08-08T21:07:21.585Z,18.86
2023-08-08T21:08:21.509Z,18.83
2023-08-08T21:09:21.420Z,18.86
2023-08-08T21:10:21.355Z,18.87
2023-08-08T21:11:21.280Z,18.83
2023-08-08T21:12:21.304Z,18.83
2023-08-08T21:13:21.137Z,18.77
2023-08-08T21:14:21.046Z,18.80
2023-08-08T21:15:20.968Z,18.79
2023-08-08T21:16:20.909Z,18.76
2023-08-08T21:17:20.813Z,18.68
2023-08-08T21:18:20.736Z,18.67
2023-08-08T21:19:20.665Z,18.65
2023-08-08T21:20:20.596Z,18.62
2023-08-08T21:21:20.509Z,18.65
2023-08-08T21:22:20.430Z,18.69
2023-08-08T21:23:20.352Z,18.64
2023-08-08T21:24:20.276Z,18.57
2023-08-08T21:25:20.202Z,18.62
2023-08-08T21:26:26.305Z,18.57
2023-08-08T21:27:20.041Z,18.44
2023-08-08T21:28:20.155Z,18.44
2023-08-08T21:29:19.888Z,18.28
2023-08-08T21:30:19.818Z,18.37
2023-08-08T21:31:19.796Z,18.39
2023-08-08T21:32:19.752Z,18.35
2023-08-08T21:33:19.581Z,18.39
2023-08-08T21:34:19.612Z,18.42
2023-08-08T21:35:19.440Z,18.31
2023-08-08T21:36:19.356Z,18.37
2023-08-08T21:37:19.269Z,18.28
2023-08-08T21:38:19.203Z,18.32
2023-08-08T21:39:19.126Z,18.35
2023-08-08T21:40:19.064Z,18.29
2023-08-08T21:41:18.978Z,18.35
2023-08-08T21:42:18.907Z,18.31
2023-08-08T21:43:18.819Z,18.31
2023-08-08T21:44:18.848Z,18.39
2023-08-08T21:45:18.657Z,18.28
2023-08-08T21:46:18.618Z,18.32
2023-08-08T21:47:18.514Z,18.27
2023-08-08T21:48:18.446Z,18.19
2023-08-08T21:49:18.366Z,18.16
2023-08-08T21:50:18.280Z,18.18
2023-08-08T21:51:18.208Z,18.21
2023-08-08T21:52:18.135Z,18.22
2023-08-08T21:53:18.049Z,18.06
2023-08-08T21:54:18.043Z,18.09
2023-08-08T21:55:17.925Z,18.04
2023-08-08T21:56:17.821Z,18.09
2023-08-08T21:57:17.743Z,18.11
2023-08-08T21:58:17.667Z,18.06
2023-08-08T21:59:17.586Z,18.11
2023-08-08T22:00:17.627Z,18.11
2023-08-08T22:01:17.520Z,18.09
2023-08-08T22:02:17.432Z,18.06
2023-08-08T22:03:17.331Z,18.06
2023-08-08T22:04:17.246Z,18.13
2023-08-08T22:05:17.128Z,18.02
2023-08-08T22:06:17.058Z,18.02